Time;durP1;ratioP1;P1;durP2;ratioP2;P2;SDS_P1;SDS_P2;PMS_P1;PMS_P2;Temp;Humidity;BMP_temperature;BMP_pressure;BME280_temperature;BME280_humidity;BME280_pressure;Samples;Min_cycle;Max_cycle;Signal;HPM_P1;HPM_P2
2021/11/08 00:00:45;;;;;;;10.35;2.47;;;;;;;6.82;100.00;97764.97;4998836;28;20057;-83
2021/11/08 00:03:16;;;;;;;14.32;2.70;;;;;;;6.77;100.00;97755.06;5000159;28;20054;-83
2021/11/08 00:05:44;;;;;;;23.08;2.78;;;;;;;6.64;100.00;97768.38;5000739;28;20061;-84
2021/11/08 00:08:14;;;;;;;18.90;2.30;;;;;;;6.60;100.00;97775.44;5017915;28;20077;-85
2021/11/08 00:10:41;;;;;;;10.05;2.28;;;;;;;6.51;100.00;97767.19;5010073;28;20033;-85
2021/11/08 00:13:11;;;;;;;17.65;2.70;;;;;;;6.54;100.00;97763.94;5006218;28;20065;-84
2021/11/08 00:23:11;;;;;;;9.00;2.03;;;;;;;6.55;100.00;97762.84;5014891;28;20049;-82
2021/11/08 00:25:40;;;;;;;16.13;2.28;;;;;;;6.55;100.00;97779.00;5015872;28;20045;-83
2021/11/08 00:28:09;;;;;;;13.73;2.50;;;;;;;6.54;100.00;97776.56;4998464;28;20057;-84
2021/11/08 00:30:38;;;;;;;11.63;2.70;;;;;;;6.48;100.00;97770.44;5013069;23;20123;-78
2021/11/08 00:33:15;;;;;;;21.30;4.20;;;;;;;6.52;100.00;97776.06;5032360;28;20099;-80
2021/11/08 00:35:49;;;;;;;18.88;2.53;;;;;;;6.48;100.00;97780.41;5046801;28;20045;-82
2021/11/08 00:38:16;;;;;;;19.67;3.15;;;;;;;6.59;100.00;97785.41;5050092;28;20489;-81
2021/11/08 00:40:44;;;;;;;19.10;2.47;;;;;;;6.56;100.00;97782.47;5049509;28;20048;-79
2021/11/08 00:43:12;;;;;;;14.95;2.20;;;;;;;6.65;100.00;97783.47;5050888;28;20110;-80
2021/11/08 00:45:40;;;;;;;14.52;2.70;;;;;;;6.74;100.00;97784.41;5050291;28;20495;-81
2021/11/08 00:48:07;;;;;;;18.25;2.70;;;;;;;6.71;100.00;97777.72;5051717;28;20068;-81
2021/11/08 00:50:34;;;;;;;16.40;2.60;;;;;;;6.74;100.00;97792.50;5043351;28;20045;-81
2021/11/08 00:53:02;;;;;;;13.75;2.63;;;;;;;6.76;100.00;97779.56;5052793;28;20056;-81
2021/11/08 00:55:30;;;;;;;12.25;2.53;;;;;;;6.69;100.00;97789.84;5050375;28;20301;-80
2021/11/08 00:57:59;;;;;;;18.40;2.67;;;;;;;6.69;100.00;97789.84;5052093;28;20056;-81
2021/11/08 01:00:29;;;;;;;19.67;4.15;;;;;;;6.72;100.00;97789.28;5051854;28;20477;-81
2021/11/08 01:02:58;;;;;;;16.55;2.58;;;;;;;6.73;100.00;97796.28;5050259;28;20110;-81
2021/11/08 01:05:25;;;;;;;14.45;2.50;;;;;;;6.69;100.00;97797.94;5051178;28;20102;-80
2021/11/08 01:07:51;;;;;;;15.82;2.60;;;;;;;6.74;100.00;97808.63;5051363;28;20041;-82
2021/11/08 01:10:19;;;;;;;18.20;2.95;;;;;;;6.73;100.00;97798.97;5050833;28;20111;-78
2021/11/08 01:12:47;;;;;;;11.07;2.80;;;;;;;6.80;100.00;97794.84;5051285;28;20087;-80
2021/11/08 01:15:15;;;;;;;16.17;2.50;;;;;;;6.71;100.00;97793.88;5051026;28;20095;-82
2021/11/08 01:17:42;;;;;;;15.50;2.70;;;;;;;6.77;100.00;97802.69;5038268;28;20053;-80
2021/11/08 01:20:11;;;;;;;14.35;2.83;;;;;;;6.76;100.00;97807.25;5058124;28;20049;-80
2021/11/08 01:22:39;;;;;;;11.48;2.20;;;;;;;6.81;100.00;97807.19;5056400;28;20052;-79
2021/11/08 01:25:08;;;;;;;12.30;2.35;;;;;;;6.87;100.00;97799.88;5057341;28;20056;-80
2021/11/08 01:27:40;;;;;;;14.50;2.33;;;;;;;6.88;100.00;97813.06;5050067;28;20106;-81
2021/11/08 01:30:19;;;;;;;16.02;2.30;;;;;;;6.90;100.00;97804.69;5055473;28;20053;-81
2021/11/08 01:35:37;;;;;;;15.02;2.35;;;;;;;6.83;100.00;97810.44;5055542;28;20057;-79
2021/11/08 01:38:09;;;;;;;14.82;2.75;;;;;;;6.81;100.00;97819.88;5054292;28;20052;-79
2021/11/08 01:40:38;;;;;;;14.52;2.30;;;;;;;6.81;100.00;97825.25;5055398;28;20084;-79
2021/11/08 01:43:05;;;;;;;14.65;2.33;;;;;;;6.77;100.00;97816.13;5052808;28;20098;-80
2021/11/08 01:45:33;;;;;;;13.05;2.28;;;;;;;6.76;100.00;97828.00;5052686;28;20432;-79
2021/11/08 01:47:59;;;;;;;16.60;2.63;;;;;;;6.82;100.00;97822.28;5054674;28;20071;-79
2021/11/08 01:50:27;;;;;;;18.60;2.30;;;;;;;6.84;100.00;97820.09;5052886;28;20577;-79
2021/11/08 01:52:54;;;;;;;13.75;2.80;;;;;;;6.79;100.00;97809.38;5054619;28;20053;-80
2021/11/08 01:55:22;;;;;;;12.75;2.50;;;;;;;6.75;100.00;97829.88;5054117;28;20061;-80
2021/11/08 01:57:50;;;;;;;15.20;2.45;;;;;;;6.83;100.00;97826.56;5053555;28;20264;-79
2021/11/08 02:00:18;;;;;;;16.17;2.58;;;;;;;6.87;100.00;97824.09;5053291;28;20052;-79
2021/11/08 02:02:45;;;;;;;19.35;2.47;;;;;;;6.90;100.00;97824.34;5053533;28;20488;-79
2021/11/08 02:05:12;;;;;;;22.95;2.92;;;;;;;6.90;100.00;97832.41;5054071;28;20053;-79
2021/11/08 02:07:39;;;;;;;16.38;2.40;;;;;;;6.89;100.00;97836.19;5054281;28;20409;-79
2021/11/08 02:10:09;;;;;;;15.05;2.35;;;;;;;6.83;100.00;97817.69;5053986;28;20064;-80
2021/11/08 02:12:36;;;;;;;14.50;2.10;;;;;;;6.85;100.00;97832.47;5053496;28;20080;-79
2021/11/08 02:15:06;;;;;;;16.10;2.60;;;;;;;6.88;100.00;97839.16;5053853;28;20049;-81
2021/11/08 02:17:33;;;;;;;15.75;2.40;;;;;;;6.88;100.00;97842.66;5054054;28;20049;-79
2021/11/08 02:20:21;;;;;;;14.63;2.42;;;;;;;6.85;100.00;97845.91;5054084;28;20440;-79
2021/11/08 02:22:52;;;;;;;18.85;2.42;;;;;;;7.00;100.00;97858.41;5044835;28;20061;-80
2021/11/08 02:25:21;;;;;;;13.75;2.50;;;;;;;6.89;100.00;97851.53;5054921;28;20090;-80
2021/11/08 02:27:49;;;;;;;16.40;2.22;;;;;;;7.07;100.00;97858.06;5054492;28;20052;-79
2021/11/08 02:30:17;;;;;;;16.70;2.45;;;;;;;6.99;100.00;97850.63;5058522;28;20056;-81
2021/11/08 02:32:43;;;;;;;18.27;2.40;;;;;;;6.89;100.00;97851.53;5054255;28;20091;-80
2021/11/08 02:35:14;;;;;;;17.02;2.42;;;;;;;6.91;100.00;97862.81;5080911;23;20056;-84
2021/11/08 02:37:41;;;;;;;12.38;2.20;;;;;;;6.96;100.00;97854.69;5077028;28;20093;-84
2021/11/08 02:40:17;;;;;;;15.30;2.50;;;;;;;6.99;100.00;97851.44;5092311;28;20040;-85
2021/11/08 02:42:48;;;;;;;11.23;2.22;;;;;;;6.99;100.00;97847.94;5053762;28;20076;-84
2021/11/08 02:45:16;;;;;;;20.40;2.42;;;;;;;6.97;100.00;97850.88;5071365;28;20104;-84
2021/11/08 02:47:44;;;;;;;17.52;2.22;;;;;;;6.99;100.00;97843.34;5072116;28;20566;-85
2021/11/08 02:50:12;;;;;;;18.45;2.20;;;;;;;7.03;100.00;97859.72;5063436;28;20054;-82
2021/11/08 02:52:39;;;;;;;15.05;2.80;;;;;;;6.98;100.00;97852.50;5092288;28;20044;-83
2021/11/08 02:55:05;;;;;;;15.05;2.33;;;;;;;7.02;100.00;97852.75;5078100;28;20048;-83
2021/11/08 02:57:35;;;;;;;13.20;2.10;;;;;;;7.02;100.00;97861.59;5089966;28;20052;-80
2021/11/08 03:00:09;;;;;;;15.35;2.35;;;;;;;7.00;100.00;97854.91;5081820;28;20041;-85
2021/11/08 03:02:38;;;;;;;14.95;2.38;;;;;;;6.99;100.00;97856.81;5074564;28;20051;-86
2021/11/08 03:05:06;;;;;;;10.00;2.13;;;;;;;6.94;100.00;97850.69;5056578;28;20048;-82
2021/11/08 03:07:37;;;;;;;18.65;2.55;;;;;;;7.08;100.00;97852.38;5074982;28;20063;-82
2021/11/08 03:10:15;;;;;;;20.73;2.75;;;;;;;6.97;100.00;97845.50;5055022;28;20068;-86
2021/11/08 03:12:42;;;;;;;14.05;2.10;;;;;;;7.00;100.00;97849.50;5074017;28;20115;-84
2021/11/08 03:15:12;;;;;;;15.77;2.38;;;;;;;7.01;100.00;97851.94;5056153;28;20256;-85
2021/11/08 03:17:43;;;;;;;19.83;2.88;;;;;;;7.07;100.00;97848.09;5073935;28;20552;-83
2021/11/08 03:20:16;;;;;;;15.63;2.38;;;;;;;7.05;100.00;97858.34;5073813;28;20436;-82
2021/11/08 03:22:53;;;;;;;16.02;2.50;;;;;;;7.16;100.00;97859.84;5073984;28;20056;-82
2021/11/08 03:25:39;;;;;;;13.15;2.05;;;;;;;7.14;100.00;97866.59;5073504;28;20049;-84
2021/11/08 03:28:08;;;;;;;14.82;2.30;;;;;;;7.20;100.00;97868.94;5074102;28;20049;-81
2021/11/08 03:30:39;;;;;;;19.65;2.42;;;;;;;7.17;100.00;97874.91;5073389;28;20044;-82
2021/11/08 03:33:09;;;;;;;20.08;2.22;;;;;;;7.29;100.00;97872.59;5055876;28;20053;-84
2021/11/08 03:35:36;;;;;;;13.70;2.35;;;;;;;7.25;100.00;97881.56;5056055;28;20049;-87
2021/11/08 03:38:06;;;;;;;15.95;2.40;;;;;;;7.18;100.00;97884.56;5073742;28;20071;-81
2021/11/08 03:40:38;;;;;;;19.63;2.00;;;;;;;7.22;100.00;97898.28;5073420;28;20074;-85
2021/11/08 03:43:06;;;;;;;19.88;2.50;;;;;;;7.22;100.00;97893.69;5055513;28;20056;-86
2021/11/08 03:45:34;;;;;;;18.33;2.45;;;;;;;7.18;100.00;97895.34;5055435;28;20168;-85
2021/11/08 03:48:04;;;;;;;20.40;2.70;;;;;;;7.20;100.00;97898.53;5054932;28;20048;-82
2021/11/08 03:50:30;;;;;;;15.50;2.20;;;;;;;7.22;100.00;97899.09;5073948;28;20045;-79
2021/11/08 03:52:57;;;;;;;18.98;2.75;;;;;;;7.14;100.00;97906.97;5070292;28;20470;-79
2021/11/08 03:55:24;;;;;;;16.17;2.30;;;;;;;7.18;100.00;97905.31;5075401;28;20057;-85
2021/11/08 03:57:52;;;;;;;15.20;2.78;;;;;;;7.10;100.00;97890.59;5046728;28;20057;-85
2021/11/08 04:00:22;;;;;;;18.30;2.55;;;;;;;7.06;100.00;97892.25;5036695;28;20099;-84
2021/11/08 04:02:50;;;;;;;18.52;3.00;;;;;;;7.23;100.00;97922.22;5053420;28;20080;-85
2021/11/08 04:05:19;;;;;;;18.58;2.22;;;;;;;7.14;100.00;97923.94;5054516;28;20049;-83
2021/11/08 04:07:47;;;;;;;15.88;2.22;;;;;;;7.21;100.00;97920.91;5052830;28;20484;-85
2021/11/08 04:10:16;;;;;;;17.92;2.70;;;;;;;7.15;100.00;97922.84;5053185;28;20048;-85
2021/11/08 04:12:43;;;;;;;17.25;2.08;;;;;;;7.16;100.00;97911.00;5052886;28;20103;-81
2021/11/08 04:15:13;;;;;;;16.08;2.22;;;;;;;7.20;100.00;97916.63;5054342;28;20060;-86
2021/11/08 04:17:44;;;;;;;25.10;3.00;;;;;;;7.24;100.00;97931.09;5035282;28;20045;-86
2021/11/08 04:20:21;;;;;;;15.07;2.47;;;;;;;7.23;100.00;97916.03;5051862;28;20048;-85
2021/11/08 04:22:50;;;;;;;18.33;2.72;;;;;;;7.35;100.00;97936.09;5052835;28;20087;-85
2021/11/08 04:25:18;;;;;;;17.92;2.85;;;;;;;7.33;100.00;97924.78;5034318;28;20053;-85
2021/11/08 04:27:46;;;;;;;15.13;2.80;;;;;;;7.40;100.00;97924.47;5052822;28;20056;-85
2021/11/08 04:30:13;;;;;;;19.13;2.83;;;;;;;7.36;100.00;97924.22;5068575;28;20044;-86
2021/11/08 04:35:40;;;;;;;24.33;3.45;;;;;;;7.34;100.00;97939.88;5064956;28;20490;-86
2021/11/08 04:43:33;;;;;;;13.80;2.30;;;;;;;7.41;100.00;97942.22;5069841;28;20152;-84
2021/11/08 04:51:14;;;;;;;19.48;2.67;;;;;;;7.45;100.00;97949.44;5070065;28;20044;-84
2021/11/08 04:56:51;;;;;;;15.32;2.40;;;;;;;7.34;100.00;97953.34;5039860;28;20160;-84
2021/11/08 05:24:13;;;;;;;16.80;2.55;;;;;;;7.46;100.00;97972.59;5056560;28;20094;-84
2021/11/08 05:31:50;;;;;;;17.27;2.40;;;;;;;7.49;100.00;97963.13;5057381;28;20049;-83
2021/11/08 05:34:18;;;;;;;20.55;2.60;;;;;;;7.49;100.00;97981.97;5057099;28;20061;-85
2021/11/08 05:36:45;;;;;;;20.17;2.72;;;;;;;7.58;100.00;97982.16;5039637;28;20049;-86
2021/11/08 05:39:12;;;;;;;19.00;2.30;;;;;;;7.55;100.00;97988.94;5055483;28;20110;-84
2021/11/08 05:41:42;;;;;;;17.58;2.55;;;;;;;7.49;100.00;97985.50;5038139;28;20099;-86
2021/11/08 05:44:09;;;;;;;14.95;2.78;;;;;;;7.45;100.00;97984.47;5038198;28;20618;-85
2021/11/08 05:46:36;;;;;;;11.20;2.30;;;;;;;7.40;100.00;97986.41;5058147;28;20053;-82
2021/11/08 05:49:03;;;;;;;16.35;2.50;;;;;;;7.59;100.00;98003.41;5045117;28;20048;-82
2021/11/08 05:51:29;;;;;;;15.65;2.65;;;;;;;7.42;100.00;97989.59;5067752;28;20048;-81
2021/11/08 05:53:56;;;;;;;19.70;2.65;;;;;;;7.44;100.00;97999.00;5039375;28;20615;-83
2021/11/08 05:56:35;;;;;;;16.73;2.05;;;;;;;7.49;100.00;98006.22;5055934;28;20420;-85
2021/11/08 06:49:17;;;;;;;17.55;2.85;;;;;;;7.52;100.00;98060.34;5070630;28;20139;-83
2021/11/08 06:51:45;;;;;;;15.38;2.28;;;;;;;7.48;100.00;98061.22;5057157;28;20053;-84
2021/11/08 06:54:12;;;;;;;17.20;2.47;;;;;;;7.63;100.00;98073.72;5030963;28;20080;-84
2021/11/08 06:59:35;;;;;;;13.85;2.63;;;;;;;7.57;100.00;98072.97;5034013;28;20053;-83
2021/11/08 07:02:02;;;;;;;15.80;2.42;;;;;;;7.65;100.00;98075.03;5056090;28;20052;-84
2021/11/08 07:04:29;;;;;;;20.20;2.83;;;;;;;7.60;100.00;98082.38;5060059;28;20048;-84
2021/11/08 07:06:55;;;;;;;17.20;2.78;;;;;;;7.65;100.00;98085.81;5068357;28;20067;-84
2021/11/08 07:09:22;;;;;;;21.48;2.92;;;;;;;7.65;100.00;98090.41;5053296;28;20056;-87
2021/11/08 07:11:49;;;;;;;17.85;3.10;;;;;;;7.60;100.00;98096.66;5040765;28;20045;-84
2021/11/08 07:14:16;;;;;;;21.35;2.97;;;;;;;7.63;100.00;98097.97;5050958;28;20385;-83
2021/11/08 07:16:44;;;;;;;15.60;3.00;;;;;;;7.67;100.00;98104.38;5035109;28;20061;-83
2021/11/08 07:19:13;;;;;;;20.02;2.95;;;;;;;7.83;100.00;98103.97;5051616;28;20049;-84
2021/11/08 07:21:40;;;;;;;19.60;2.55;;;;;;;7.69;100.00;98091.44;5034766;28;20445;-83
2021/11/08 07:24:07;;;;;;;24.13;3.22;;;;;;;7.77;100.00;98096.22;5033938;28;20052;-84
2021/11/08 07:26:33;;;;;;;18.30;2.97;;;;;;;7.77;100.00;98096.22;5059553;28;20118;-84
2021/11/08 07:29:02;;;;;;;16.02;2.67;;;;;;;7.80;100.00;98101.03;5045292;28;20080;-84
2021/11/08 07:31:33;;;;;;;15.57;2.50;;;;;;;7.89;100.00;98092.03;5032960;28;20045;-84
2021/11/08 07:34:00;;;;;;;19.17;3.20;;;;;;;7.95;100.00;98100.84;5050672;28;20155;-84
2021/11/08 07:36:27;;;;;;;16.48;2.78;;;;;;;8.06;100.00;98108.56;5031363;28;20109;-81
2021/11/08 07:38:53;;;;;;;17.98;2.92;;;;;;;7.87;100.00;98115.75;5051770;28;20069;-84
2021/11/08 07:41:20;;;;;;;16.13;2.88;;;;;;;7.89;100.00;98115.50;5052666;28;20041;-82
2021/11/08 07:43:47;;;;;;;18.38;3.25;;;;;;;7.94;100.00;98112.75;5071069;28;20086;-84
2021/11/08 07:46:18;;;;;;;17.15;2.70;;;;;;;7.97;100.00;98110.28;5043838;28;20112;-83
2021/11/08 07:48:45;;;;;;;17.15;2.95;;;;;;;7.93;100.00;98119.22;5069290;28;20118;-81
2021/11/08 07:51:18;;;;;;;16.00;3.05;;;;;;;7.99;100.00;98113.50;5070740;28;20144;-84
2021/11/08 07:53:46;;;;;;;17.67;2.78;;;;;;;8.03;100.00;98125.31;5050879;28;20385;-81
2021/11/08 07:56:13;;;;;;;18.20;2.92;;;;;;;8.08;100.00;98127.94;5052776;28;20072;-84
2021/11/08 07:58:40;;;;;;;20.75;2.70;;;;;;;8.06;100.00;98121.22;5070090;28;20135;-82
2021/11/08 08:01:07;;;;;;;14.00;2.75;;;;;;;8.21;100.00;98125.66;5068310;28;20472;-82
2021/11/08 08:03:34;;;;;;;18.85;2.78;;;;;;;8.03;100.00;98128.00;5051515;28;20130;-84
2021/11/08 08:06:02;;;;;;;12.98;2.58;;;;;;;8.13;100.00;98137.88;5070413;28;20048;-83
2021/11/08 08:08:29;;;;;;;12.98;2.55;;;;;;;8.21;100.00;98128.38;5069047;28;20056;-84
2021/11/08 08:10:57;;;;;;;17.73;2.75;;;;;;;8.24;100.00;98128.56;5071198;28;20433;-87
2021/11/08 08:13:27;;;;;;;18.05;3.30;;;;;;;8.15;100.00;98135.72;5054562;28;20052;-85
2021/11/08 08:15:58;;;;;;;16.40;2.95;;;;;;;8.23;100.00;98127.00;5052769;28;20094;-85
2021/11/08 08:18:30;;;;;;;13.75;2.47;;;;;;;8.22;100.00;98129.94;5056953;28;20121;-84
2021/11/08 08:20:58;;;;;;;18.38;3.00;;;;;;;8.40;100.00;98127.34;5055954;28;20045;-85
2021/11/08 08:23:27;;;;;;;15.25;3.13;;;;;;;8.22;100.00;98133.47;5032756;28;20075;-83
2021/11/08 08:26:00;;;;;;;15.23;2.47;;;;;;;8.29;100.00;98133.94;5052051;28;20048;-82
2021/11/08 08:28:27;;;;;;;17.90;3.50;;;;;;;8.32;100.00;98144.16;5051647;28;20456;-82
2021/11/08 08:30:54;;;;;;;15.10;2.92;;;;;;;8.26;100.00;98153.34;5034033;28;20127;-82
2021/11/08 08:33:21;;;;;;;19.83;3.35;;;;;;;8.34;100.00;98146.56;5050648;28;20063;-86
2021/11/08 08:54:42;;;;;;;13.70;2.53;;;;;;;8.39;100.00;98158.09;4039754;23;20056;-84
2021/11/08 08:57:10;;;;;;;18.52;2.42;;;;;;;8.52;100.00;98165.50;5074499;28;20110;-87
2021/11/08 08:59:38;;;;;;;13.95;2.22;;;;;;;8.62;100.00;98178.09;5075755;28;20083;-83
2021/11/08 09:02:05;;;;;;;16.10;2.40;;;;;;;8.60;100.00;98181.06;5054552;28;20053;-83
2021/11/08 09:04:31;;;;;;;15.32;2.63;;;;;;;8.52;100.00;98180.88;5040874;28;20083;-86
2021/11/08 09:06:58;;;;;;;19.02;2.60;;;;;;;8.43;100.00;98175.34;5045565;28;20049;-85
2021/11/08 09:09:25;;;;;;;17.02;2.50;;;;;;;8.46;100.00;98174.75;5044108;28;20405;-88
2021/11/08 09:11:51;;;;;;;13.65;2.58;;;;;;;8.37;100.00;98178.34;5037357;28;20044;-86
2021/11/08 09:14:18;;;;;;;16.92;2.30;;;;;;;8.57;100.00;98180.81;5038480;28;20049;-84
2021/11/08 09:16:45;;;;;;;13.68;1.98;;;;;;;8.59;100.00;98181.34;5038092;28;20461;-87
2021/11/08 09:19:11;;;;;;;16.42;2.38;;;;;;;8.58;100.00;98182.44;5055195;28;20151;-88
2021/11/08 09:21:40;;;;;;;15.65;2.38;;;;;;;8.64;100.00;98182.09;5054648;28;20072;-85
2021/11/08 09:24:07;;;;;;;13.88;2.40;;;;;;;8.62;100.00;98178.09;5037403;28;20065;-83
2021/11/08 09:26:35;;;;;;;16.33;2.38;;;;;;;8.60;100.00;98199.94;5037574;28;20057;-84
2021/11/08 09:29:03;;;;;;;15.90;2.72;;;;;;;8.50;100.00;98172.28;5055386;28;20080;-86
2021/11/08 09:31:30;;;;;;;19.08;2.50;;;;;;;8.74;100.00;98211.66;5055091;28;20084;-87
2021/11/08 09:34:03;;;;;;;15.80;2.70;;;;;;;8.62;100.00;98183.47;5054347;28;20049;-85
2021/11/08 09:36:32;;;;;;;11.27;2.20;;;;;;;8.66;100.00;98200.69;5059849;28;20037;-85
2021/11/08 09:39:00;;;;;;;15.18;2.30;;;;;;;8.86;100.00;98224.72;5043781;28;20048;-82
2021/11/08 09:41:34;;;;;;;14.55;2.72;;;;;;;8.73;100.00;98206.53;5078223;28;20044;-82
2021/11/08 09:44:03;;;;;;;15.00;2.55;;;;;;;8.84;100.00;98172.94;5083766;28;20112;-86
2021/11/08 09:46:31;;;;;;;13.32;2.13;;;;;;;9.20;100.00;98202.94;5073952;28;20052;-86
2021/11/08 09:49:01;;;;;;;17.23;2.03;;;;;;;9.09;100.00;98214.97;5072204;28;20052;-85
2021/11/08 09:51:32;;;;;;;16.00;2.80;;;;;;;8.83;100.00;98217.22;5054919;28;20051;-84
2021/11/08 09:54:00;;;;;;;9.65;2.05;;;;;;;8.83;100.00;98211.03;5071565;28;20049;-87
2021/11/08 09:56:26;;;;;;;15.75;2.60;;;;;;;8.72;100.00;98203.03;5072669;28;20452;-85
2021/11/08 09:59:00;;;;;;;10.52;2.15;;;;;;;8.95;100.00;98223.00;5073379;28;20088;-83
2021/11/08 10:01:45;;;;;;;11.57;2.47;;;;;;;9.03;100.00;98232.38;5074005;28;20542;-84
2021/11/08 10:04:12;;;;;;;14.88;2.47;;;;;;;9.00;100.00;98230.25;5047135;28;20445;-85
2021/11/08 10:06:39;;;;;;;14.82;2.80;;;;;;;8.99;100.00;98237.53;5036904;28;20102;-86
2021/11/08 10:09:10;;;;;;;15.30;2.78;;;;;;;9.07;100.00;98228.78;5035732;28;20052;-84
2021/11/08 10:11:38;;;;;;;11.95;2.05;;;;;;;8.95;100.00;98225.72;5053911;28;20048;-84
2021/11/08 10:14:06;;;;;;;18.35;2.45;;;;;;;9.06;100.00;98227.16;5053857;28;20055;-87
2021/11/08 10:16:35;;;;;;;8.52;2.35;;;;;;;8.85;100.00;98225.84;5035448;28;20048;-85
2021/11/08 10:19:05;;;;;;;18.65;3.22;;;;;;;9.05;100.00;98228.28;5045007;28;20105;-86
2021/11/08 10:21:36;;;;;;;13.60;2.13;;;;;;;9.10;100.00;98238.22;5056218;28;20393;-84
2021/11/08 10:24:07;;;;;;;13.25;2.17;;;;;;;9.14;100.00;98231.13;5061530;28;20079;-86
2021/11/08 10:26:36;;;;;;;13.82;2.60;;;;;;;9.15;100.00;98233.53;5055911;28;20608;-86
2021/11/08 10:29:22;;;;;;;12.95;2.00;;;;;;;9.38;100.00;98238.09;5072866;28;20063;-86
2021/11/08 10:32:07;;;;;;;12.48;2.00;;;;;;;9.34;100.00;98239.75;5070841;28;20040;-85
2021/11/08 10:34:34;;;;;;;12.27;2.10;;;;;;;9.30;100.00;98248.72;5053343;28;20135;-86
2021/11/08 10:37:07;;;;;;;13.18;2.25;;;;;;;9.08;100.00;98246.63;5051312;28;20071;-84
2021/11/08 10:39:39;;;;;;;11.18;1.98;;;;;;;9.37;100.00;98241.88;5034647;28;20107;-85
2021/11/08 10:42:07;;;;;;;16.13;2.40;;;;;;;9.08;100.00;98256.59;5034554;28;20049;-83
2021/11/08 10:44:34;;;;;;;12.65;2.38;;;;;;;8.63;100.00;98226.38;5051427;28;20052;-86
2021/11/08 10:47:04;;;;;;;12.35;2.70;;;;;;;8.82;100.00;98228.31;5033799;28;20049;-85
2021/11/08 10:49:38;;;;;;;20.30;3.00;;;;;;;8.95;100.00;98250.03;5051011;28;20106;-83
2021/11/08 10:52:06;;;;;;;11.15;2.15;;;;;;;8.71;100.00;98241.13;5047874;28;20045;-83
2021/11/08 10:54:41;;;;;;;11.65;2.17;;;;;;;8.56;100.00;98255.59;5037027;28;20048;-85
2021/11/08 10:57:12;;;;;;;11.48;2.03;;;;;;;8.51;100.00;98247.56;5058111;28;20048;-80
2021/11/08 10:59:47;;;;;;;10.68;2.00;;;;;;;8.72;100.00;98251.63;5032288;28;20044;-84
2021/11/08 11:02:20;;;;;;;13.18;1.77;;;;;;;8.80;100.00;98246.69;5049577;28;20076;-85
2021/11/08 11:04:56;;;;;;;15.88;2.03;;;;;;;8.82;100.00;98248.00;5032835;28;20127;-84
2021/11/08 11:07:28;;;;;;;17.00;2.25;;;;;;;8.90;100.00;98247.38;5056493;28;20044;-85
2021/11/08 11:10:15;;;;;;;11.20;1.90;;;;;;;9.34;100.00;98228.16;5037935;28;20455;-82
2021/11/08 11:12:47;;;;;;;24.67;2.38;;;;;;;9.46;100.00;98257.44;5059436;28;20076;-80
2021/11/08 11:15:24;;;;;;;13.80;2.08;;;;;;;9.62;100.00;98251.53;5053149;28;20056;-80
2021/11/08 11:17:55;;;;;;;11.48;1.75;;;;;;;9.19;100.00;98210.25;5051967;28;20057;-80
2021/11/08 11:20:25;;;;;;;15.60;2.58;;;;;;;9.26;100.00;98235.03;5050964;28;20048;-80
2021/11/08 11:23:16;;;;;;;14.48;2.28;;;;;;;9.45;100.00;98240.41;5052465;28;20099;-84
2021/11/08 11:25:50;;;;;;;9.32;1.63;;;;;;;9.45;100.00;98251.22;5037568;28;20052;-80
2021/11/08 11:28:36;;;;;;;12.48;2.22;;;;;;;9.43;100.00;98245.31;5059177;28;20056;-82
2021/11/08 11:31:15;;;;;;;10.55;2.20;;;;;;;9.61;100.00;98241.78;5054998;28;20565;-82
2021/11/08 11:33:42;;;;;;;12.15;2.20;;;;;;;9.65;100.00;98245.50;5048720;28;20072;-81
2021/11/08 11:36:13;;;;;;;14.38;1.95;;;;;;;9.64;100.00;98241.22;5033300;28;20119;-83
2021/11/08 11:38:45;;;;;;;10.43;2.20;;;;;;;9.83;100.00;98231.16;5060906;28;20052;-81
2021/11/08 11:41:21;;;;;;;12.73;1.75;;;;;;;10.01;100.00;98245.78;5050221;28;20496;-80
2021/11/08 11:43:49;;;;;;;;;;;;;;;9.97;100.00;98244.75;5070091;28;20125;-81
2021/11/08 11:46:24;;;;;;;11.15;1.85;;;;;;;10.26;100.00;98247.25;5054040;28;19947;-82
2021/11/08 11:48:51;;;;;;;11.18;2.35;;;;;;;10.46;100.00;98209.81;5056099;28;20060;-81
2021/11/08 11:51:28;;;;;;;12.20;2.20;;;;;;;10.28;100.00;98237.75;5049901;28;20111;-79
2021/11/08 11:53:56;;;;;;;12.65;2.15;;;;;;;10.08;100.00;98234.56;5069406;28;20734;-83
2021/11/08 11:56:24;;;;;;;12.85;2.10;;;;;;;10.24;100.00;98234.03;5069181;28;20059;-82
2021/11/08 11:58:51;;;;;;;11.45;1.83;;;;;;;10.28;100.00;98245.06;5051747;28;20083;-83
2021/11/08 12:01:24;;;;;;;13.63;2.20;;;;;;;10.32;100.00;98249.59;5051381;28;20048;-82
2021/11/08 12:03:52;;;;;;;12.73;2.33;;;;;;;10.01;100.00;98249.25;5070602;28;20102;-81
2021/11/08 12:06:28;;;;;;;13.98;2.17;;;;;;;9.69;100.00;98251.94;5069471;28;20396;-81
2021/11/08 12:08:58;;;;;;;13.18;2.00;;;;;;;9.64;100.00;98253.91;5052023;28;20052;-81
2021/11/08 12:11:33;;;;;;;8.48;1.80;;;;;;;9.74;100.00;98253.75;5051366;28;20279;-80
2021/11/08 12:14:04;;;;;;;;;;;;;;;9.75;100.00;98261.59;5070447;28;20074;-80
2021/11/08 12:16:33;;;;;;;10.95;1.48;;;;;;;9.86;100.00;98265.72;5051984;28;19966;-80
2021/11/08 12:19:02;;;;;;;6.28;1.70;;;;;;;10.08;100.00;98242.66;5070445;28;20416;-81
2021/11/08 12:21:35;;;;;;;9.30;1.52;;;;;;;9.73;100.00;98241.38;5038054;28;20117;-84
2021/11/08 12:24:18;;;;;;;8.18;1.50;;;;;;;9.86;100.00;98256.81;5058358;28;20055;-83
2021/11/08 12:26:45;;;;;;;11.73;1.52;;;;;;;10.17;100.00;98257.94;5076766;28;20059;-82
2021/11/08 12:29:19;;;;;;;13.88;2.20;;;;;;;9.93;100.00;98268.06;5063475;28;20067;-82
2021/11/08 12:31:58;;;;;;;11.38;2.08;;;;;;;9.84;100.00;98265.22;5053009;28;20492;-81
2021/11/08 12:34:25;;;;;;;9.57;1.90;;;;;;;9.79;100.00;98270.72;5072737;28;20118;-80
2021/11/08 12:37:01;;;;;;;9.38;1.95;;;;;;;9.90;100.00;98257.84;5052855;28;20107;-82
2021/11/08 12:39:28;;;;;;;7.65;1.30;;;;;;;9.69;100.00;98253.84;5051922;28;20187;-80
2021/11/08 12:42:04;;;;;;;13.75;1.35;;;;;;;9.69;100.00;98267.38;5070666;28;20052;-80
2021/11/08 12:44:50;;;;;;;15.32;1.10;;;;;;;9.71;100.00;98257.84;5061321;28;20048;-81
2021/11/08 12:47:29;;;;;;;8.50;1.17;;;;;;;9.91;100.00;98254.84;5076262;28;20066;-82
2021/11/08 12:49:56;;;;;;;7.43;1.30;;;;;;;9.86;100.00;98241.41;5071626;28;20048;-80
2021/11/08 12:52:27;;;;;;;7.30;1.30;;;;;;;10.05;100.00;98235.94;5072156;28;20070;-81
2021/11/08 12:55:02;;;;;;;6.90;1.27;;;;;;;10.07;100.00;98247.28;5052923;28;20057;-80
2021/11/08 12:57:31;;;;;;;8.43;1.55;;;;;;;9.88;100.00;98239.19;5081537;28;20062;-80
2021/11/08 13:00:16;;;;;;;8.35;1.30;;;;;;;9.96;100.00;98256.69;5080793;28;20067;-83
2021/11/08 13:02:55;;;;;;;10.43;1.20;;;;;;;9.70;100.00;98250.06;5076629;28;20044;-83
2021/11/08 13:05:29;;;;;;;11.70;1.60;;;;;;;9.65;100.00;98250.13;5077819;28;20302;-81
2021/11/08 13:07:57;;;;;;;9.20;1.45;;;;;;;9.61;100.00;98268.03;5076592;28;20101;-82
2021/11/08 13:10:28;;;;;;;10.75;1.08;;;;;;;9.82;100.00;98242.28;5099524;28;20044;-83
2021/11/08 13:12:56;;;;;;;6.05;1.42;;;;;;;10.09;100.00;98255.09;5090596;28;20044;-82
2021/11/08 13:15:27;;;;;;;10.63;1.40;;;;;;;9.77;100.00;98264.00;5072545;28;20052;-80
2021/11/08 13:18:04;;;;;;;13.38;1.58;;;;;;;9.90;100.00;98244.31;5098136;28;20040;-85
2021/11/08 13:20:35;;;;;;;9.30;1.30;;;;;;;9.60;100.00;98240.19;5097511;28;20048;-82
2021/11/08 13:23:09;;;;;;;11.95;1.52;;;;;;;9.49;100.00;98236.03;5096000;28;20113;-81
2021/11/08 13:25:37;;;;;;;4.43;1.30;;;;;;;9.43;100.00;98233.69;5078148;28;20052;-84
2021/11/08 13:28:08;;;;;;;9.18;1.33;;;;;;;9.37;100.00;98211.34;5095556;28;20105;-82
2021/11/08 13:30:38;;;;;;;10.68;1.60;;;;;;;9.50;100.00;98234.94;5079774;28;20044;-81
2021/11/08 13:33:08;;;;;;;7.68;1.20;;;;;;;9.74;100.00;98241.06;5101735;28;20048;-80
2021/11/08 13:35:37;;;;;;;10.02;1.40;;;;;;;9.84;100.00;98238.19;5099118;28;20135;-84
2021/11/08 13:38:21;;;;;;;7.20;1.30;;;;;;;9.31;100.00;98215.22;5083452;28;20101;-84
2021/11/08 13:40:53;;;;;;;7.72;1.50;;;;;;;9.49;100.00;98236.03;5094084;28;20048;-85
2021/11/08 13:43:44;;;;;;;10.73;1.70;;;;;;;9.31;100.00;98212.53;5094082;28;20495;-83
2021/11/08 13:46:14;;;;;;;7.32;1.52;;;;;;;9.58;100.00;98226.16;5094102;28;20102;-83
2021/11/08 13:48:50;;;;;;;10.15;1.55;;;;;;;9.62;100.00;98242.59;5079699;28;20634;-83